Historyczne dane pomiarowe

Dodano dane terminowe – wersja testowa.

Dane z okresu 1951-2019

Wersja bazy: 1.34 [2019-03-16, lista zmian], aktualizacja planowana na 2019-04-15

Dane meteo z obszaru Polski uzyskane na podstawie danych udostępnionych przez Instytut Meteorologii i Gospodarki Wodnej – Państwowy Instytut Badawczy.

 

Wybierz Datę:    

       

TemperaturaWilgotnośćWiatrCiśnienieOpadyŚniegCzas trwania zjawisk
 Stacja t tx tn tng RH VA  wxwx mslp ppp RRR   cm mm wxwxwxwxwxwxwx
1987-08-14 15.5 21.0 9.9- 67.5- 5.3 1.0---- 0.0------------
1987-08-13 11.6 17.0 5.0- 74.0- 6.0 2.7---- 0.0------------
1987-08-12 12.1 17.2 6.2- 74.0- 7.3 2.7---- 0.0------------
1987-08-11 14.0 18.5 11.3- 71.8- 6.0 2.3---- 0.0------------
1987-08-10 15.1 18.4 13.9- 79.0- 8.0 0.0---- 10.4------------
1987-08-09 15.3 22.8 7.5- 65.3- 4.7 2.0---- 0.0------------
1987-08-08 13.6 19.0 7.5- 73.3- 7.0 0.3---- 0.0------------
1987-08-07 12.4 16.7 5.9- 76.5- 5.3 1.0---- 0.6------------
1987-08-06 11.8 15.5 10.2- 81.5- 7.3 1.0---- 3.1------------
1987-08-05 14.3 17.0 11.8- 78.0- 8.0 0.3---- 0.0------------
1987-08-04 14.6 20.6 8.7- 85.8- 7.7 0.0---- 5.4------------
1987-08-03 15.0 19.6 11.1- 75.5- 6.3 1.0---- 0.0------------
1987-08-02 15.0 18.5 13.9- 80.3- 7.7 1.7---- 1.2------------
1987-08-01 16.0 21.5 12.2- 78.3- 5.3 0.0---- 2.5------------
1987-07-31 16.4 21.5 11.2- 80.8- 8.0 0.0---- 12.8------------
1987-07-30 16.3 22.5 10.8- 70.0- 6.0 0.7---- 0.0------------
1987-07-29 14.3 19.2 10.7- 76.0- 5.7 0.0---- 0.0------------
1987-07-28 13.1 15.5 11.9- 84.3- 8.0 0.7---- 4.1------------
1987-07-27 14.1 17.6 9.2- 69.5- 6.0 1.7---- 2.5------------
1987-07-26 15.8 21.0 12.3- 91.0- 8.0 0.0---- 3.7------------
1987-07-25 19.7 24.2 16.6- 84.5- 8.0 0.7---- 18.3------------
1987-07-24 22.0 28.0 17.2- 80.3- 5.7 2.7---- 4.5------------
1987-07-23 22.0 28.5 15.2- 73.8- 6.7 0.7---- 0.3------------
1987-07-22 21.4 26.8 15.3- 78.8- 6.7 0.0---- 0.0------------
1987-07-21 22.0 28.2 15.6- 72.5- 5.3 0.7---- 0.0------------
1987-07-20 23.5 29.0 17.3- 74.5- 5.0 2.3---- 0.0------------
1987-07-19 25.2 32.0 16.8- 68.5- 1.3 0.7---- 0.0------------
1987-07-18 24.1 29.5 17.3- 69.8- 3.3 0.7---- 0.0------------
1987-07-17 21.8 29.5 14.9- 68.3- 4.7 1.0---- 0.0------------
1987-07-16 20.3 27.7 11.5- 70.3- 6.0 0.0---- 0.0------------
1987-07-15 17.0 22.7 8.1- 74.0- 1.0 0.0---- 0.0------------
1987-07-14 17.8 20.8 13.2- 69.3- 0.7 0.3---- 0.0------------
1987-07-13 20.1 23.8 16.2- 74.5- 7.3 1.0---- 0.0------------
1987-07-12 20.4 26.3 12.8- 64.8- 3.0 1.7---- 5.2------------
1987-07-11 16.5 23.4 8.0- 66.5- 1.7 0.0---- 0.0------------
1987-07-10 16.0 19.0 13.2- 70.5- 5.0 1.7---- 0.0------------
1987-07-09 21.2 27.4 15.4- 68.5- 4.3 1.3---- 12.7------------
1987-07-08 20.4 27.4 10.6- 59.0- 0.0 0.7---- 0.0------------
1987-07-07 17.7 25.4 7.7- 64.8- 0.7 0.0---- 0.0------------
1987-07-06 16.4 21.4 8.5- 67.3- 0.7 0.0---- 0.0------------
1987-07-05 16.0 19.8 14.2- 71.3- 7.3 1.0---- 0.0------------
1987-07-04 19.7 23.1 16.8- 61.3- 6.7 0.3---- 0.0------------
1987-07-03 19.7 22.7 17.3- 69.5- 7.7 1.3---- 0.0------------
1987-07-02 21.2 26.5 17.7- 88.8- 7.7 0.3---- 0.0------------
1987-07-01 24.0 30.2 16.5- 67.8- 2.0 1.3---- 0.0------------
1987-06-30 21.3 28.8 13.8- 73.3- 1.3 0.0---- 0.0------------
1987-06-29 19.8 24.8 16.1- 73.5- 4.3 2.0---- 0.0------------
1987-06-28 19.5 24.5 16.2- 76.8- 5.0 0.3---- 0.0------------
1987-06-27 18.5 24.3 12.4- 76.5- 6.3 0.0---- 0.2------------
1987-06-26 16.2 23.0 8.7- 68.3- 1.7 2.0---- 0.0------------
1987-06-25 15.8 19.2 12.5- 74.3- 7.0 0.7---- 0.0------------
1987-06-24 16.0 20.5 12.2- 78.0- 5.3 0.7---- 0.0------------
1987-06-23 15.3 19.5 11.7- 89.3- 7.3 0.0---- 0.2------------
1987-06-22 15.6 23.4 10.9- 86.0- 7.3 0.7---- 7.4------------
1987-06-21 14.4 22.8 8.7- 80.8- 5.0 0.3---- 2.7------------
1987-06-20 15.9 22.5 5.9- 61.8- 2.3 0.3---- 0.0------------
1987-06-19 12.0 17.5 7.4- 76.8- 6.3 0.0---- 1.2------------
1987-06-18 11.0 18.4 5.9- 81.5- 5.0 0.0---- 4.2------------
1987-06-17 11.2 14.6 9.7- 84.8- 8.0 0.0---- 2.7------------
1987-06-16 17.3 24.6 12.7- 71.8- 6.7 2.0---- 13.0------------
456.5 ms

 

Źródłem pochodzenia danych jest Instytut Meteorologii i Gospodarki Wodnej – Państwowy Instytut Badawczy. Dane Instytutu Meteorologii i Gospodarki Wodnej – Państwowego Instytutu Badawczego zostały przetworzone.

Dane źródłowe można odnaleźć na stronie https://dane.imgw.pl